createdAt,value
2022-07-29T00:01:00.295Z,4.40
2022-07-29T00:03:28.281Z,5.10
2022-07-29T00:05:56.382Z,4.90
2022-07-29T00:08:24.375Z,4.80
2022-07-29T00:10:53.291Z,4.90
2022-07-29T00:13:32.619Z,4.90
2022-07-29T00:16:04.447Z,4.60
2022-07-29T00:18:33.506Z,5.00
2022-07-29T00:21:01.499Z,4.70
2022-07-29T00:23:30.678Z,4.30
2022-07-29T00:25:59.729Z,4.80
2022-07-29T00:28:27.604Z,4.40
2022-07-29T00:30:55.481Z,5.00
2022-07-29T00:33:24.558Z,4.60
2022-07-29T00:35:52.600Z,4.30
2022-07-29T00:38:21.750Z,4.20
2022-07-29T00:40:49.956Z,4.10
2022-07-29T00:43:18.647Z,4.60
2022-07-29T00:45:46.595Z,4.60
2022-07-29T00:48:14.638Z,4.70
2022-07-29T00:50:42.786Z,5.00
2022-07-29T00:53:13.253Z,4.50
2022-07-29T00:55:41.366Z,4.60
2022-07-29T00:58:09.742Z,4.40
2022-07-29T01:00:38.126Z,4.20
2022-07-29T01:03:05.981Z,4.80
2022-07-29T01:05:50.492Z,4.60
2022-07-29T01:08:21.221Z,4.80
2022-07-29T01:10:52.075Z,4.80
2022-07-29T01:13:21.440Z,4.60
2022-07-29T01:15:57.709Z,4.70
2022-07-29T01:18:33.055Z,4.60
2022-07-29T01:21:54.775Z,4.70
2022-07-29T01:30:00.870Z,4.40
2022-07-29T01:32:36.309Z,5.30
2022-07-29T01:35:06.219Z,5.10
2022-07-29T01:37:43.402Z,5.00
2022-07-29T01:40:20.412Z,4.90
2022-07-29T01:42:55.792Z,4.90
2022-07-29T01:45:47.629Z,4.80
2022-07-29T01:48:25.493Z,5.00
2022-07-29T01:51:05.761Z,4.70
2022-07-29T01:53:42.868Z,4.70
2022-07-29T01:56:13.134Z,4.90
2022-07-29T01:58:44.956Z,4.70
2022-07-29T02:01:14.652Z,5.10
2022-07-29T02:03:46.048Z,4.90
2022-07-29T02:06:18.419Z,4.90
2022-07-29T02:08:48.145Z,4.90
2022-07-29T02:11:16.267Z,4.80
2022-07-29T02:13:46.031Z,4.80
2022-07-29T02:16:16.592Z,4.70
2022-07-29T02:18:46.755Z,5.40
2022-07-29T02:21:20.773Z,5.10
2022-07-29T02:23:51.821Z,4.60
2022-07-29T02:26:25.575Z,5.00
2022-07-29T02:28:57.469Z,4.80
2022-07-29T02:31:30.816Z,5.10
2022-07-29T02:34:00.860Z,5.60
2022-07-29T02:36:30.912Z,5.00
2022-07-29T02:39:01.825Z,5.50
2022-07-29T02:41:34.527Z,6.90
2022-07-29T02:44:10.417Z,6.20
2022-07-29T02:46:44.776Z,6.10
2022-07-29T02:49:27.919Z,6.20
2022-07-29T02:52:01.226Z,7.30
2022-07-29T02:54:35.237Z,7.80
2022-07-29T02:57:10.490Z,7.70
2022-07-29T02:59:44.513Z,7.70
2022-07-29T03:02:14.881Z,6.50
2022-07-29T03:04:44.742Z,6.50
2022-07-29T03:07:16.680Z,5.80
2022-07-29T03:09:46.422Z,5.60
2022-07-29T03:12:15.899Z,5.30
2022-07-29T03:14:44.995Z,5.60
2022-07-29T03:17:13.752Z,5.00
2022-07-29T03:19:42.136Z,5.00
2022-07-29T03:22:10.904Z,5.20
2022-07-29T03:24:39.458Z,4.80
2022-07-29T03:27:07.344Z,5.80
2022-07-29T03:29:35.748Z,5.40
2022-07-29T03:32:08.018Z,5.30
2022-07-29T03:34:38.615Z,5.30
2022-07-29T03:37:07.929Z,6.00
2022-07-29T03:39:41.880Z,5.60
2022-07-29T03:42:13.064Z,5.50
2022-07-29T03:44:45.712Z,5.40
2022-07-29T03:47:16.033Z,5.30
2022-07-29T03:49:47.753Z,5.20
2022-07-29T03:52:16.538Z,6.00
2022-07-29T03:54:44.658Z,9.20
2022-07-29T03:57:13.402Z,7.60
2022-07-29T03:59:42.314Z,7.30
2022-07-29T04:02:12.785Z,7.10
2022-07-29T04:04:40.852Z,7.40
2022-07-29T04:07:13.708Z,7.90
2022-07-29T04:09:42.049Z,8.10
2022-07-29T04:12:10.449Z,8.00
2022-07-29T04:14:38.295Z,7.20
2022-07-29T04:17:06.442Z,6.50
2022-07-29T04:19:34.464Z,5.90
2022-07-29T04:22:03.115Z,6.30
2022-07-29T04:24:31.082Z,7.60
2022-07-29T04:26:59.005Z,5.50
2022-07-29T04:29:27.074Z,5.30
2022-07-29T04:31:55.209Z,5.90
2022-07-29T04:34:23.179Z,6.70
2022-07-29T04:36:58.956Z,5.70
2022-07-29T04:39:28.214Z,5.80
2022-07-29T04:41:58.542Z,6.10
2022-07-29T04:44:28.753Z,5.90
2022-07-29T04:46:58.936Z,5.90
2022-07-29T04:49:27.276Z,6.00
2022-07-29T04:51:55.543Z,6.00
2022-07-29T04:54:23.712Z,5.90
2022-07-29T04:56:55.771Z,6.90
2022-07-29T04:59:23.694Z,6.20
2022-07-29T05:01:51.762Z,5.90
2022-07-29T05:04:20.625Z,6.40
2022-07-29T05:06:48.962Z,6.30
2022-07-29T05:09:19.725Z,6.30
2022-07-29T05:11:47.724Z,5.90
2022-07-29T05:14:16.120Z,5.90
2022-07-29T05:16:44.560Z,5.90
2022-07-29T05:19:14.515Z,6.20
2022-07-29T05:21:43.059Z,6.30
2022-07-29T05:24:11.379Z,5.40
2022-07-29T05:26:39.814Z,5.40
2022-07-29T05:29:07.728Z,6.00
2022-07-29T05:31:55.802Z,5.40
2022-07-29T05:34:23.843Z,5.30
2022-07-29T05:36:52.256Z,5.50
2022-07-29T05:39:20.132Z,6.30
2022-07-29T05:41:51.845Z,5.90
2022-07-29T05:44:20.162Z,5.60
2022-07-29T05:46:53.240Z,5.80
2022-07-29T05:49:27.037Z,5.70
2022-07-29T05:51:56.009Z,6.10
2022-07-29T05:54:24.422Z,6.10
2022-07-29T05:56:52.760Z,5.70
2022-07-29T05:59:20.663Z,5.70
2022-07-29T06:01:48.830Z,5.50
2022-07-29T06:04:17.353Z,5.60
2022-07-29T06:06:45.700Z,5.80
2022-07-29T06:09:14.357Z,6.50
2022-07-29T06:11:42.660Z,6.20
2022-07-29T06:14:10.601Z,6.30
2022-07-29T06:16:38.560Z,6.40
2022-07-29T06:19:06.766Z,6.70
2022-07-29T06:21:35.672Z,7.00
2022-07-29T06:24:13.695Z,6.20
2022-07-29T06:26:43.381Z,6.40
2022-07-29T06:29:11.773Z,6.70
2022-07-29T06:31:40.286Z,6.70
2022-07-29T06:34:08.516Z,7.20
2022-07-29T06:36:37.933Z,6.80
2022-07-29T06:39:08.919Z,6.40
2022-07-29T06:41:36.886Z,7.30
2022-07-29T06:44:10.857Z,7.10
2022-07-29T06:46:39.154Z,7.00
2022-07-29T06:49:07.769Z,7.00
2022-07-29T06:51:35.962Z,6.90
2022-07-29T06:54:06.413Z,8.00
2022-07-29T06:56:40.099Z,8.00
2022-07-29T06:59:10.629Z,7.20
2022-07-29T07:01:42.148Z,10.30
2022-07-29T07:04:11.369Z,11.40
2022-07-29T07:06:40.051Z,8.30
2022-07-29T07:09:08.333Z,7.50
2022-07-29T07:11:36.710Z,6.70
2022-07-29T07:14:04.703Z,6.60
2022-07-29T07:16:33.041Z,7.00
2022-07-29T07:19:01.640Z,6.60
2022-07-29T07:21:31.110Z,7.20
2022-07-29T07:24:00.422Z,11.10
2022-07-29T07:26:29.128Z,7.10
2022-07-29T07:28:57.532Z,6.90
2022-07-29T07:31:25.685Z,7.90
2022-07-29T07:33:54.718Z,7.40
2022-07-29T07:36:23.722Z,7.00
2022-07-29T07:38:51.701Z,6.90
2022-07-29T07:41:19.814Z,6.90
2022-07-29T07:43:48.215Z,6.50
2022-07-29T07:46:17.065Z,7.10
2022-07-29T07:48:45.639Z,7.20
2022-07-29T07:51:14.040Z,6.60
2022-07-29T07:53:42.261Z,6.70
2022-07-29T07:56:12.062Z,7.40
2022-07-29T07:58:47.854Z,7.10
2022-07-29T08:01:18.820Z,6.80
2022-07-29T08:03:46.898Z,7.30
2022-07-29T08:06:14.824Z,7.10
2022-07-29T08:08:42.844Z,6.50
2022-07-29T08:11:11.026Z,7.40
2022-07-29T08:13:39.668Z,7.50
2022-07-29T08:16:16.061Z,6.80
2022-07-29T08:18:46.268Z,7.40
2022-07-29T08:21:17.010Z,8.80
2022-07-29T08:24:07.345Z,6.40
2022-07-29T08:26:35.769Z,8.00
2022-07-29T08:29:03.747Z,6.50
2022-07-29T08:31:31.755Z,6.60
2022-07-29T08:34:01.025Z,6.80
2022-07-29T08:36:29.200Z,8.90
2022-07-29T08:38:57.377Z,7.40
2022-07-29T08:41:25.731Z,6.40
2022-07-29T08:43:53.774Z,6.50
2022-07-29T08:46:23.733Z,6.70
2022-07-29T08:48:53.811Z,6.50
2022-07-29T08:51:22.853Z,7.30
2022-07-29T08:53:51.728Z,8.40
2022-07-29T08:56:21.631Z,7.00
2022-07-29T08:58:52.513Z,7.80
2022-07-29T09:01:36.208Z,6.20
2022-07-29T09:04:13.108Z,6.00
2022-07-29T09:06:45.359Z,8.90
2022-07-29T09:09:15.068Z,7.00
2022-07-29T09:11:43.765Z,6.40
2022-07-29T09:14:15.553Z,6.70
2022-07-29T09:16:53.875Z,6.60
2022-07-29T09:19:37.170Z,6.70
2022-07-29T09:22:08.294Z,6.60
2022-07-29T09:24:36.106Z,6.10
2022-07-29T09:27:09.728Z,7.80
2022-07-29T09:29:39.043Z,6.60
2022-07-29T09:32:11.290Z,6.80
2022-07-29T09:34:39.664Z,6.90
2022-07-29T09:37:08.285Z,6.20
2022-07-29T09:39:47.308Z,6.80
2022-07-29T09:42:29.383Z,6.50
2022-07-29T09:44:59.024Z,6.40
2022-07-29T09:47:46.682Z,6.60
2022-07-29T09:50:15.094Z,6.10
2022-07-29T09:52:54.447Z,6.30
2022-07-29T09:55:22.460Z,6.50
2022-07-29T09:57:50.423Z,6.30
2022-07-29T10:00:20.858Z,6.80
2022-07-29T10:02:49.834Z,7.20
2022-07-29T10:05:19.957Z,6.00
2022-07-29T10:10:34.934Z,7.20
2022-07-29T10:13:16.076Z,6.60
2022-07-29T10:15:46.922Z,6.80
2022-07-29T10:18:18.564Z,5.90
2022-07-29T10:20:46.868Z,5.90
2022-07-29T10:23:15.448Z,6.00
2022-07-29T10:25:46.175Z,6.10
2022-07-29T10:28:16.669Z,5.80
2022-07-29T10:30:47.062Z,6.00
2022-07-29T10:33:33.721Z,6.10
2022-07-29T10:36:41.038Z,5.50
2022-07-29T10:39:59.062Z,6.70
2022-07-29T10:42:34.233Z,7.20
2022-07-29T10:45:05.555Z,7.50
2022-07-29T10:47:35.123Z,6.60
2022-07-29T10:50:06.095Z,6.30
2022-07-29T10:52:55.888Z,6.10
2022-07-29T10:55:39.461Z,6.10
2022-07-29T10:58:24.627Z,6.10
2022-07-29T11:00:54.872Z,6.50
2022-07-29T11:03:52.247Z,5.90
2022-07-29T11:06:26.428Z,6.00
2022-07-29T11:09:25.824Z,6.60
2022-07-29T11:12:03.696Z,6.30
2022-07-29T11:14:53.613Z,6.10
2022-07-29T11:17:21.731Z,6.00
2022-07-29T11:19:51.949Z,6.40
2022-07-29T11:22:34.603Z,6.80
2022-07-29T11:28:22.731Z,6.30
2022-07-29T11:30:56.250Z,6.10
2022-07-29T11:33:37.450Z,6.40
2022-07-29T11:36:18.912Z,6.70
2022-07-29T11:39:36.487Z,7.00
2022-07-29T11:45:43.289Z,6.30
2022-07-29T11:48:29.147Z,5.90
2022-07-29T11:50:59.873Z,6.00
2022-07-29T11:53:28.722Z,6.60
2022-07-29T11:55:58.288Z,13.90
2022-07-29T11:58:27.238Z,6.90
2022-07-29T12:00:56.334Z,6.40
2022-07-29T12:03:34.190Z,5.80
2022-07-29T12:06:15.118Z,5.80
2022-07-29T12:07:01.290Z,7.00
2022-07-29T12:08:45.119Z,6.30
2022-07-29T12:11:23.366Z,5.90
2022-07-29T12:13:58.281Z,5.60
2022-07-29T12:16:38.701Z,6.00
2022-07-29T12:19:08.905Z,5.80
2022-07-29T12:21:59.360Z,6.20
2022-07-29T12:24:27.702Z,5.80
2022-07-29T12:26:59.061Z,6.20
2022-07-29T12:29:34.774Z,6.30
2022-07-29T12:32:14.424Z,6.10
2022-07-29T12:34:43.465Z,6.40
2022-07-29T12:37:12.256Z,6.10
2022-07-29T12:39:40.829Z,6.40
2022-07-29T12:42:21.230Z,6.10
2022-07-29T12:44:54.090Z,6.80
2022-07-29T12:47:22.812Z,5.60
2022-07-29T12:50:07.918Z,6.20
2022-07-29T12:52:36.257Z,7.00
2022-07-29T12:55:04.935Z,6.60
2022-07-29T12:57:33.090Z,6.10
2022-07-29T13:00:11.990Z,5.60
2022-07-29T13:02:41.980Z,6.50
2022-07-29T13:07:55.756Z,5.80
2022-07-29T13:10:26.117Z,6.20
2022-07-29T13:13:07.532Z,5.50
2022-07-29T13:15:36.259Z,5.40
2022-07-29T13:18:05.286Z,5.60
2022-07-29T13:20:33.595Z,6.30
2022-07-29T13:23:02.113Z,5.70
2022-07-29T13:25:32.861Z,5.90
2022-07-29T13:28:01.215Z,5.80
2022-07-29T13:30:30.213Z,5.50
2022-07-29T13:32:58.310Z,5.80
2022-07-29T13:35:26.256Z,6.20
2022-07-29T13:37:54.243Z,5.80
2022-07-29T13:40:22.300Z,5.80
2022-07-29T13:42:50.416Z,6.00
2022-07-29T13:45:18.438Z,4.90
2022-07-29T13:47:49.344Z,7.00
2022-07-29T13:50:17.459Z,5.30
2022-07-29T13:52:45.823Z,4.40
2022-07-29T13:55:13.703Z,4.30
2022-07-29T13:57:41.742Z,6.10
2022-07-29T14:00:10.979Z,4.00
2022-07-29T14:02:39.534Z,4.30
2022-07-29T14:05:09.120Z,4.10
2022-07-29T14:07:39.756Z,4.50
2022-07-29T14:10:08.935Z,3.40
2022-07-29T14:12:37.387Z,3.40
2022-07-29T14:15:06.250Z,3.50
2022-07-29T14:17:34.637Z,3.30
2022-07-29T14:20:02.517Z,2.80
2022-07-29T14:22:31.261Z,3.40
2022-07-29T14:25:06.179Z,3.60
2022-07-29T14:27:44.806Z,3.40
2022-07-29T14:30:13.411Z,3.50
2022-07-29T14:32:41.844Z,3.90
2022-07-29T14:35:10.173Z,3.30
2022-07-29T14:37:40.288Z,3.20
2022-07-29T14:40:10.310Z,3.00
2022-07-29T14:42:38.770Z,2.70
2022-07-29T14:45:09.108Z,2.90
2022-07-29T14:47:38.117Z,2.50
2022-07-29T14:50:07.811Z,3.20
2022-07-29T14:52:36.204Z,2.60
2022-07-29T14:55:05.952Z,2.90
2022-07-29T14:57:47.755Z,3.00
2022-07-29T15:00:16.082Z,3.60
2022-07-29T15:03:00.918Z,4.60
2022-07-29T15:05:32.094Z,3.90
2022-07-29T15:08:00.561Z,4.80
2022-07-29T15:10:29.055Z,10.10
2022-07-29T15:12:57.933Z,4.40
2022-07-29T15:15:26.796Z,3.50
2022-07-29T15:17:54.885Z,3.40
2022-07-29T15:20:26.193Z,4.00
2022-07-29T15:22:56.524Z,5.10
2022-07-29T15:25:28.104Z,3.80
2022-07-29T15:28:01.209Z,4.40
2022-07-29T15:30:33.132Z,4.60
2022-07-29T15:33:04.042Z,4.20
2022-07-29T15:38:00.451Z,4.60
2022-07-29T15:40:28.886Z,5.10
2022-07-29T15:42:56.999Z,4.40
2022-07-29T15:45:25.024Z,4.20
2022-07-29T15:47:52.998Z,4.50
2022-07-29T15:50:21.235Z,4.00
2022-07-29T15:52:49.166Z,4.20
2022-07-29T15:55:17.151Z,5.10
2022-07-29T15:57:45.059Z,6.00
2022-07-29T16:00:13.914Z,4.10
2022-07-29T16:02:41.988Z,4.10
2022-07-29T16:05:10.599Z,4.50
2022-07-29T16:07:38.745Z,3.80
2022-07-29T16:10:08.077Z,3.80
2022-07-29T16:12:36.041Z,5.20
2022-07-29T16:15:09.275Z,4.30
2022-07-29T16:17:39.114Z,4.90
2022-07-29T16:20:08.200Z,4.50
2022-07-29T16:22:36.450Z,4.50
2022-07-29T16:25:04.738Z,4.90
2022-07-29T16:27:35.419Z,5.20
2022-07-29T16:30:09.804Z,4.10
2022-07-29T16:32:38.382Z,4.70
2022-07-29T16:35:07.561Z,4.40
2022-07-29T16:37:37.381Z,5.10
2022-07-29T16:40:07.231Z,4.50
2022-07-29T16:42:47.554Z,4.90
2022-07-29T16:45:16.751Z,4.70
2022-07-29T16:47:46.138Z,5.70
2022-07-29T16:50:14.130Z,5.60
2022-07-29T16:52:41.974Z,4.70
2022-07-29T16:55:10.046Z,4.70
2022-07-29T16:57:38.259Z,4.30
2022-07-29T17:00:07.528Z,4.80
2022-07-29T17:02:35.825Z,4.80
2022-07-29T17:05:04.626Z,7.90
2022-07-29T17:07:32.859Z,6.40
2022-07-29T17:10:04.083Z,6.60
2022-07-29T17:12:32.717Z,9.20
2022-07-29T17:15:00.879Z,8.30
2022-07-29T17:17:39.477Z,6.90
2022-07-29T17:20:17.478Z,5.70
2022-07-29T17:22:45.823Z,7.00
2022-07-29T17:25:20.846Z,5.70
2022-07-29T17:27:50.921Z,6.30
2022-07-29T17:30:18.966Z,6.90
2022-07-29T17:32:47.187Z,6.50
2022-07-29T17:35:33.857Z,6.00
2022-07-29T17:38:01.877Z,6.40
2022-07-29T17:40:29.909Z,7.30
2022-07-29T17:42:58.102Z,6.20
2022-07-29T17:45:26.279Z,6.00
2022-07-29T17:48:14.192Z,6.40
2022-07-29T17:50:42.165Z,4.80
2022-07-29T17:53:16.179Z,5.40
2022-07-29T17:55:48.835Z,6.10
2022-07-29T17:58:16.867Z,5.90
2022-07-29T18:00:45.032Z,5.20
2022-07-29T18:03:13.367Z,5.50
2022-07-29T18:05:41.802Z,5.70
2022-07-29T18:08:11.963Z,5.10
2022-07-29T18:13:12.960Z,4.90
2022-07-29T18:15:41.282Z,5.70
2022-07-29T18:18:09.359Z,9.20
2022-07-29T18:20:37.709Z,5.60
2022-07-29T18:23:06.259Z,5.10
2022-07-29T18:25:34.530Z,5.30
2022-07-29T18:28:02.511Z,5.80
2022-07-29T18:30:31.185Z,6.00
2022-07-29T18:33:20.359Z,6.60
2022-07-29T18:35:48.722Z,5.50
2022-07-29T18:38:17.638Z,7.10
2022-07-29T18:40:46.234Z,6.30
2022-07-29T18:43:14.352Z,5.80
2022-07-29T18:45:42.401Z,6.70
2022-07-29T18:48:12.941Z,5.50
2022-07-29T18:50:42.075Z,6.00
2022-07-29T18:53:10.141Z,6.10
2022-07-29T18:55:38.219Z,5.40
2022-07-29T18:58:06.922Z,5.60
2022-07-29T19:00:35.433Z,6.80
2022-07-29T19:03:03.933Z,5.60
2022-07-29T19:05:32.470Z,6.00
2022-07-29T19:08:00.574Z,6.50
2022-07-29T19:10:29.612Z,6.50
2022-07-29T19:12:57.957Z,7.10
2022-07-29T19:15:26.405Z,6.00
2022-07-29T19:17:59.044Z,6.00
2022-07-29T19:20:29.680Z,6.20
2022-07-29T19:22:58.780Z,5.40
2022-07-29T19:25:26.961Z,6.70
2022-07-29T19:27:55.321Z,6.10
2022-07-29T19:30:23.597Z,6.00
2022-07-29T19:32:51.541Z,6.10
2022-07-29T19:35:31.922Z,6.00
2022-07-29T19:38:01.997Z,5.80
2022-07-29T19:40:30.544Z,6.20
2022-07-29T19:42:58.697Z,5.80
2022-07-29T19:45:26.817Z,7.10
2022-07-29T19:48:00.764Z,6.50
2022-07-29T19:50:29.901Z,6.30
2022-07-29T19:52:58.890Z,6.10
2022-07-29T19:55:27.583Z,6.20
2022-07-29T19:57:55.881Z,6.70
2022-07-29T20:00:24.404Z,6.60
2022-07-29T20:02:52.575Z,5.90
2022-07-29T20:05:20.603Z,6.10
2022-07-29T20:07:48.588Z,6.70
2022-07-29T20:10:16.715Z,6.60
2022-07-29T20:12:44.794Z,6.70
2022-07-29T20:15:16.589Z,6.70
2022-07-29T20:17:44.951Z,6.60
2022-07-29T20:20:13.132Z,6.70
2022-07-29T20:22:41.895Z,6.90
2022-07-29T20:25:10.166Z,6.60
2022-07-29T20:27:40.602Z,6.40
2022-07-29T20:32:40.604Z,6.30
2022-07-29T20:35:10.025Z,6.60
2022-07-29T20:37:52.264Z,7.40
2022-07-29T20:40:26.020Z,8.90
2022-07-29T20:42:55.614Z,8.80
2022-07-29T20:45:24.633Z,7.90
2022-07-29T20:47:53.221Z,7.60
2022-07-29T20:50:23.753Z,7.30
2022-07-29T20:52:55.026Z,7.40
2022-07-29T20:55:22.993Z,7.00
2022-07-29T20:57:50.951Z,7.50
2022-07-29T21:00:19.078Z,7.40
2022-07-29T21:02:47.563Z,7.00
2022-07-29T21:05:16.123Z,7.10
2022-07-29T21:07:44.094Z,6.90
2022-07-29T21:10:14.321Z,6.40
2022-07-29T21:15:13.655Z,7.10
2022-07-29T21:17:48.360Z,7.60
2022-07-29T21:20:18.400Z,7.10
2022-07-29T21:22:46.364Z,7.00
2022-07-29T21:25:14.353Z,7.00
2022-07-29T21:28:02.002Z,7.60
2022-07-29T21:30:29.938Z,8.00
2022-07-29T21:32:58.010Z,7.10
2022-07-29T21:36:01.569Z,7.20
2022-07-29T21:38:16.551Z,7.40
2022-07-29T21:40:46.449Z,7.10
2022-07-29T21:43:15.120Z,7.30
2022-07-29T21:45:44.258Z,8.30
2022-07-29T21:48:12.192Z,7.30
2022-07-29T21:50:40.125Z,7.80
2022-07-29T21:53:08.046Z,7.70
2022-07-29T21:55:39.562Z,7.50
2022-07-29T21:58:07.826Z,7.00
2022-07-29T22:00:35.763Z,7.40
2022-07-29T22:03:05.184Z,7.30
2022-07-29T22:05:33.512Z,8.00
2022-07-29T22:08:01.655Z,7.00
2022-07-29T22:10:30.947Z,7.70
2022-07-29T22:13:00.738Z,7.20
2022-07-29T22:15:29.987Z,7.60
2022-07-29T22:17:58.211Z,7.70
2022-07-29T22:20:26.317Z,7.60
2022-07-29T22:22:54.891Z,7.10
2022-07-29T22:25:22.924Z,7.90
2022-07-29T22:27:50.987Z,7.30
2022-07-29T22:30:19.476Z,6.90
2022-07-29T22:32:48.117Z,7.50
2022-07-29T22:35:16.533Z,6.50
2022-07-29T22:37:44.669Z,7.40
2022-07-29T22:40:12.723Z,7.00
2022-07-29T22:42:41.114Z,7.60
2022-07-29T22:45:10.709Z,7.40
2022-07-29T22:47:48.146Z,7.80
2022-07-29T22:50:17.266Z,7.40
2022-07-29T22:52:46.126Z,7.00
2022-07-29T22:55:14.891Z,9.70
2022-07-29T22:57:43.259Z,8.00
2022-07-29T23:00:12.827Z,6.40
2022-07-29T23:02:41.664Z,6.60
2022-07-29T23:05:10.664Z,7.20
2022-07-29T23:07:38.791Z,6.70
2022-07-29T23:10:07.344Z,7.60
2022-07-29T23:12:35.240Z,6.60
2022-07-29T23:15:04.650Z,7.00
2022-07-29T23:17:36.518Z,7.40
2022-07-29T23:20:07.879Z,7.40
2022-07-29T23:22:36.311Z,6.90
2022-07-29T23:25:06.301Z,7.10
2022-07-29T23:27:34.294Z,6.60
2022-07-29T23:30:04.552Z,7.10
2022-07-29T23:32:32.453Z,7.10
2022-07-29T23:35:00.707Z,7.10
2022-07-29T23:37:28.661Z,6.90
2022-07-29T23:39:56.938Z,7.20
2022-07-29T23:42:24.900Z,6.80
2022-07-29T23:44:53.014Z,6.60
2022-07-29T23:47:21.926Z,6.80
2022-07-29T23:49:50.223Z,6.40
2022-07-29T23:52:18.484Z,6.40
2022-07-29T23:54:46.628Z,6.70
2022-07-29T23:57:14.622Z,6.20
2022-07-29T23:59:42.569Z,6.40
